Record high temperature 107.1°F Record low temperature 10.6°F Record high gust 49.5 mph Record high average 23.3 mph Record daily rain 11.65 in. Record low windchill 2.7°F Record high barometer 30.818 in. Record low barometer 29.078 in.
Daily high pressure 30.019 in. Daily low pressure 29.925 in. Daily low windchill 43.2°F Daily high heat index 46.9°F Daily high gust speed 5.0 mph N Daily high average speed 2.9 mph NE
On the Greenway Weather data
LAST READING AT TIME: 3:58 AM DATE: March 26 2017, time of next update: 3:59 am
Current WeatherNight time/Dry/Overcast Current Temperature 45.5°F (7.5°C), Apparent temp 43.9°F
Maximum Temperature (since midnight)46.9°F at: 12:05 AM Minimum Temperature (since midnight)45.5°F at: 3:45 AM
Average windspeed (ten minute)1.5 mph Wind Direction (ten minute)NE (55°)
Windchill Temperature 45.5°F Maximum Gust (last hour)5.0 mph at: 2:59AM
Maximum Gust (since midnight)5.0 mph at: 2:59 AM Maximum 1 minute average (since midnight)2.9 mph at: 1:10 AM
Rainfall (last hour)0.00 in. (0.0 mm) Rainfall (since midnight)0.00 in. (0.0 mm) ---
Rainfall This month 6.61 in. (167.9 mm) Rainfall To date this year 47.68 in. (1211.1 mm)
Maximum rain per minute (last hour)0.00 in/min Maximum rain per hour (last 6 hours)0.00 in/hour
Yesterdays rainfall 0.01 in DewPoint 42.7°F (Wet Bulb :44.2°F )
Humidity 90 %, Humidex 44.8°F Barometer corrected to msl29.927 in. (1013.5 hPa)
Pressure change -0.03 in. (last hour) Trend (last hour)FALLING
Pressure change (last 12 hours)-0.18 in Pressure change (last 6 hours)-0.11 in
Current Indoor Temp. 77.9°F
Current Indoor Hum. 30%
Current Solar 0 W/Mē
Maximum solar (since midnight) 0 W/Mē Minimum solar (since midnight)0 W/Mē
Current 00:00 hours of sunshine today, current sky: Night time/Dry/Overcast
Sunshine hours for the year: 00:00 hrs Sunshine hours for the month: 00:00 hrs
Current evapotranspiration 0.01 inches per day. Yesterday's reading 0.01

This page is updated from recent data collected by a DAVIS VANTAGE PRO weather station Use the Reload or Refresh facility on your browser to retrieve the latest data.


Click here for the last 24 hour graph
Click here for the last 48 hour graph
Click here for the last 72 hour graph
Click here for the month to date graph


Weather report/warning/Metars

Expires:201703261130;;087144
FPUS56 KPQR 260356
ZFPPQR

Zone Forecasts for Northwest Oregon and Southwest Washington
National Weather Service Portland Oregon
856 PM PDT Sat Mar 25 2017

Spot Temperatures are for Tonight, Sunday, Sunday Night, Monday, 
Monday Night, and Tuesday.

...FLOOD WATCHES AND/OR WARNINGS HAVE BEEN ISSUED FOR PORTIONS OF
THE ZONE FORECAST AREA. PLEASE REFER TO THE LATEST FLOOD BULLETIN
FOR DETAILS...


ORZ006-WAZ039-261130-
Greater Portland Metro Area-Greater Vancouver Area-
Including the cities of Hillsboro, Portland, Wilsonville, 
Oregon City, Gresham, Troutdale, Vancouver, Battle Ground, 
Ridgefield, Washougal, Yacolt, and Amboy
856 PM PDT Sat Mar 25 2017

.TONIGHT...Mostly cloudy. Slight chance of showers in the evening.
Slight chance of rain late. Lows around 40. Southeast wind 5 to
10 mph. Chance of precipitation 20 percent. 
.SUNDAY...Rain. Highs around 50. Southeast wind 5 to 15 mph. Gusts to
25 mph. Chance of rain near 100 percent. Rainfall amounts a quarter 
to a half of an inch. 
.SUNDAY NIGHT...Showers. Lows 40 to 45. South wind 5 to 10 mph.
Chance of precipitation near 100 percent. Rainfall amounts a tenth
to a quarter of an inch. 
.MONDAY...Showers likely. Highs 50 to 55. South wind 5 to 10 mph.
Chance of precipitation 70 percent. 
.MONDAY NIGHT...Mostly cloudy. Chance of showers in the evening,
then a slight chance of showers after midnight. Lows around 45.
Southwest wind 5 to 10 mph. Chance of precipitation 30 percent. 
.TUESDAY...Cloudy. Slight chance of rain in the morning, then a
chance of rain in the afternoon. Highs around 55. Chance of rain
50 percent. 
.TUESDAY NIGHT...Rain likely. Lows around 45. Chance of rain
70 percent. 
.WEDNESDAY...Rain. Highs around 55. Chance of rain 90 percent. 
.WEDNESDAY NIGHT...Showers likely. Lows 40 to 45. Chance of
precipitation 70 percent. 
.THURSDAY...Cloudy with a 50 percent chance of showers. Highs 50 to
55. 
.THURSDAY NIGHT...Partly cloudy with a 20 percent chance of showers.
Lows around 40. 
.FRIDAY...Partly cloudy. Highs 55 to 60. 
.FRIDAY NIGHT...Mostly cloudy. Lows around 40. 
.SATURDAY...Mostly cloudy with a 20 percent chance of rain. Highs
55 to 60. 

&&
                    TEMPERATURE           
Portland          43  51  44  54  45  55
Hillsboro         42  51  44  54  45  55

$$
=


PORTLAND-HILLSBORO AIRPORT, OR, United States (KHIO) 45-33N 122-57W 68M
Mar 26, 2017 - 05:53 AM EDT / 2017.03.26 0953 UTC
Wind: from the SE (140 degrees) at 7 MPH (6 KT):0
Visibility: 10 mile(s):0
Sky conditions: overcast
Temperature: 46.0 F (7.8 C)
Dew Point: 41.0 F (5.0 C)
Relative Humidity: 82%
Pressure (altimeter): 29.96 in. Hg (1014 hPa)
ob: KHIO 260953Z 14006KT 10SM BKN050 OVC110 08/05 A2996 RMK AO2 SLP146 T00780050
cycle: 10
PORTLAND INTERNATIONAL  AIRPORT, OR, United States (KPDX) 45-35N 122-36W 7M
Mar 26, 2017 - 05:53 AM EDT / 2017.03.26 0953 UTC
Wind: from the ESE (110 degrees) at 9 MPH (8 KT):0
Visibility: 10 mile(s):0
Sky conditions: overcast
Precipitation last hour: A trace
Temperature: 45.0 F (7.2 C)
Dew Point: 42.1 F (5.6 C)
Relative Humidity: 89%
Pressure (altimeter): 29.98 in. Hg (1015 hPa)
ob: KPDX 260953Z 11008KT 10SM BKN044 OVC060 07/06 A2998 RMK AO2 RAB21E29 SLP151 P0000 T00720056
cycle: 10
PORTLAND-TROUTDALE AIRPORT, OR, United States (KTTD) 45-33N 122-25W 14M
Mar 26, 2017 - 05:53 AM EDT / 2017.03.26 0953 UTC
Wind: from the E (090 degrees) at 6 MPH (5 KT):0
Visibility: 10 mile(s):0
Sky conditions: overcast
Temperature: 46.9 F (8.3 C)
Dew Point: 42.1 F (5.6 C)
Relative Humidity: 83%
Pressure (altimeter): 29.98 in. Hg (1015 hPa)
ob: KTTD 260953Z AUTO 09005KT 10SM BKN048 OVC060 08/06 A2998 RMK AO2 SLP152 T00830056
cycle: 10
MCMINNVILLE MUNICIPAL AIRPORT , OR, United States (KMMV) 45-12N 123-08W 48M
Mar 26, 2017 - 05:53 AM EDT / 2017.03.26 0953 UTC
Wind: from the SE (140 degrees) at 7 MPH (6 KT):0
Visibility: 10 mile(s):0
Sky conditions: overcast
Temperature: 46.0 F (7.8 C)
Dew Point: 39.9 F (4.4 C)
Relative Humidity: 79%
Pressure (altimeter): 29.97 in. Hg (1014 hPa)
ob: KMMV 260953Z AUTO 14006KT 10SM OVC050 08/04 A2997 RMK AO2 SLP148 T00780044
cycle: 10
SALEM MCNARY FIELD, OR, United States (KSLE) 44-54N 123-00W 59M
Mar 26, 2017 - 05:56 AM EDT / 2017.03.26 0956 UTC
Wind: from the SE (140 degrees) at 3 MPH (3 KT):0
Visibility: 10 mile(s):0
Sky conditions: overcast
Temperature: 45.0 F (7.2 C)
Dew Point: 39.9 F (4.4 C)
Relative Humidity: 82%
Pressure (altimeter): 29.96 in. Hg (1014 hPa)
ob: KSLE 260956Z AUTO 14003KT 10SM OVC041 07/04 A2996 RMK AO2 SLP146 T00720044
cycle: 10
REDMOND ROBERTS FIELD, OR, United States (KRDM) 44-15N 121-08W
Mar 26, 2017 - 05:56 AM EDT / 2017.03.26 0956 UTC
Wind: from the SW (220 degrees) at 3 MPH (3 KT):0
Visibility: 10 mile(s):0
Sky conditions: clear
Temperature: 35.1 F (1.7 C)
Dew Point: 28.9 F (-1.7 C)
Relative Humidity: 78%
Pressure (altimeter): 29.94 in. Hg (1013 hPa)
ob: KRDM 260956Z AUTO 22003KT 10SM CLR 02/M02 A2994 RMK AO2 SLP142 T00171017
cycle: 10

Date: 3/26/2017
Sunrise at:
07:02 am

Sunset at:
07:30 pm

Moonrise at:
06:31 am 03/26/17

Moonset at:
---

First Quarter  March 5 2017
Full moon  March 12 2017
Last QuarterMarch 20 2017
New moon March 28 2017
Moon age: 27 days,13 hours,35 minutes,4%
Hours of possible daylight today was 12:28:00



Use the RELOAD facility on your browser to retrieve the latest data.

Click here for current Fire weather info
Click here for the daily CLIMATOLOGICAL SUMMARY
Click here for a daily update of the averages/extremes to date for the month




Created by "Weather Display" software version 10.37R at this start time/date 5:42:06 PM 2/5/2017




On The Greenway Weather Web Site

 
 
HELP US OUT
Help us keep this weather station on the web. for the Tigard / Portland internet users to use. If you would like to help, click the donate button below
 
This site is purely funded by donations and by myself (Ray Cooper)
Anything you can do will help keep this station on the net
Average cost per year is $665 to publish and host this site excluding the cost of the weather equipment
Buyastrostuff.com is kind enough to host our DNS and email at no cost.
THANKS GUYS & Gals for helping
Have a Question,or just want to talk. Contact me at:
Ray Cooper @ Buyastrostuff.com
 

Weather Underground PWS KORTIGAR12 Weather Underground PWS KORTIGAR12